Time;durP1;ratioP1;P1;durP2;ratioP2;P2;SDS_P1;SDS_P2;PMS_P1;PMS_P2;Temp;Humidity;BMP_temperature;BMP_pressure;BME280_temperature;BME280_humidity;BME280_pressure;Samples;Min_cycle;Max_cycle;Signal;HPM_P1;HPM_P2
2022/09/28 00:01:08;;;;;;;7.70;6.90;;;;;;;8.64;91.08;98897.50;5008609;28;20230;-77
2022/09/28 00:03:35;;;;;;;8.47;7.13;;;;;;;8.59;90.67;98894.41;5006132;28;20246;-76
2022/09/28 00:06:02;;;;;;;7.73;6.83;;;;;;;8.57;90.26;98894.53;5010098;28;20462;-76
2022/09/28 00:08:30;;;;;;;8.10;7.30;;;;;;;8.53;90.20;98885.13;5011291;28;20660;-76
2022/09/28 00:10:57;;;;;;;9.60;7.60;;;;;;;8.52;91.30;98885.25;5007923;28;20230;-75
2022/09/28 00:13:24;;;;;;;9.00;7.43;;;;;;;8.52;90.42;98885.25;5008978;28;20717;-78
2022/09/28 00:15:59;;;;;;;7.70;7.00;;;;;;;8.50;90.58;98882.72;5007793;28;20231;-76
2022/09/28 00:18:25;;;;;;;7.93;7.13;;;;;;;8.49;90.46;98881.03;5003668;28;20210;-76
2022/09/28 00:21:00;;;;;;;8.37;6.83;;;;;;;8.46;90.52;98872.50;5007836;28;20223;-77
2022/09/28 00:23:27;;;;;;;8.00;7.13;;;;;;;8.44;90.68;98879.72;5008891;28;20238;-75
2022/09/28 00:25:55;;;;;;;8.47;6.83;;;;;;;8.40;90.36;98865.06;5001944;28;20207;-76
2022/09/28 00:28:21;;;;;;;7.47;6.30;;;;;;;8.37;90.37;98873.28;5003016;28;20207;-76
2022/09/28 00:30:47;;;;;;;7.40;6.00;;;;;;;8.33;90.36;98876.16;5008215;28;20490;-76
2022/09/28 00:33:14;;;;;;;6.97;6.27;;;;;;;8.30;90.59;98864.94;5007968;28;20212;-76
2022/09/28 00:35:42;;;;;;;8.30;5.40;;;;;;;8.27;90.62;98859.88;5006171;28;20210;-76
2022/09/28 00:38:08;;;;;;;6.03;5.43;;;;;;;8.21;90.41;98861.25;5008834;28;20214;-76
2022/09/28 00:40:35;;;;;;;8.60;6.33;;;;;;;8.14;90.27;98857.38;5005569;28;20703;-76
2022/09/28 00:46:02;;;;;;;7.43;6.10;;;;;;;8.05;90.21;98844.91;5111355;27;20570;-76
2022/09/28 00:48:32;;;;;;;7.10;5.83;;;;;;;8.03;89.82;98841.53;5092742;28;20196;-77
2022/09/28 00:51:02;;;;;;;8.73;6.13;;;;;;;8.03;90.19;98836.22;5093626;28;20282;-77
2022/09/28 00:53:34;;;;;;;9.57;7.00;;;;;;;8.03;90.80;98825.63;5093666;28;20204;-77
2022/09/28 00:58:34;;;;;;;7.00;6.30;;;;;;;8.02;90.13;98826.59;5072704;22;20240;-83
2022/09/28 01:01:03;;;;;;;9.43;7.43;;;;;;;8.02;90.72;98824.78;5066479;28;20209;-83
2022/09/28 01:03:30;;;;;;;6.87;5.73;;;;;;;8.01;90.99;98816.94;5070864;28;20635;-82
2022/09/28 01:06:00;;;;;;;7.13;5.50;;;;;;;8.00;90.30;98816.09;5071478;28;20622;-82
2022/09/28 01:08:27;;;;;;;5.80;5.30;;;;;;;7.98;90.91;98811.91;5062138;28;20209;-82
2022/09/28 01:10:54;;;;;;;6.73;5.90;;;;;;;7.98;90.69;98807.44;5071279;28;20212;-82
2022/09/28 01:13:23;;;;;;;6.00;5.20;;;;;;;7.98;91.17;98807.44;5069155;28;20197;-81
2022/09/28 01:15:59;;;;;;;6.47;5.87;;;;;;;7.99;91.11;98808.28;5076204;28;20246;-81
2022/09/28 01:18:36;;;;;;;6.03;5.27;;;;;;;8.00;91.07;98813.47;5072278;28;20200;-82
2022/09/28 01:21:09;;;;;;;6.83;5.70;;;;;;;8.01;91.56;98803.69;5071422;28;20204;-81
2022/09/28 01:23:53;;;;;;;6.20;5.40;;;;;;;8.02;91.91;98805.38;5070226;28;20205;-82
2022/09/28 01:26:39;;;;;;;7.33;5.10;;;;;;;8.04;91.62;98799.97;5068458;28;20209;-82
2022/09/28 01:29:16;;;;;;;5.63;5.07;;;;;;;8.05;91.73;98804.28;5065348;28;20212;-82
2022/09/28 01:31:47;;;;;;;8.43;5.07;;;;;;;8.06;92.02;98798.84;5066995;28;20574;-82
2022/09/28 01:34:21;;;;;;;6.73;5.70;;;;;;;8.07;91.86;98791.72;5073402;28;20244;-82
2022/09/28 01:36:51;;;;;;;6.83;5.73;;;;;;;8.07;92.25;98789.91;5061818;28;20228;-82
2022/09/28 01:39:22;;;;;;;8.23;5.67;;;;;;;8.08;92.54;98778.34;5063765;28;20212;-81
2022/09/28 01:41:52;;;;;;;6.13;5.53;;;;;;;8.09;92.38;98785.34;5068039;28;20216;-82
2022/09/28 01:44:22;;;;;;;6.23;5.10;;;;;;;8.09;92.01;98785.34;5068768;28;20640;-82
2022/09/28 01:46:50;;;;;;;7.27;5.63;;;;;;;8.09;91.99;98785.34;5069153;28;20218;-82
2022/09/28 01:49:20;;;;;;;6.63;5.97;;;;;;;8.10;91.79;98780.88;5065304;28;20213;-82
2022/09/28 01:51:54;;;;;;;7.83;6.13;;;;;;;8.08;92.07;98778.34;5055769;28;20782;-81
2022/09/28 01:54:27;;;;;;;7.43;5.37;;;;;;;8.08;92.65;98775.69;5072059;28;20227;-82
2022/09/28 01:56:59;;;;;;;6.03;5.43;;;;;;;8.08;93.12;98773.03;5056722;28;20310;-82
2022/09/28 01:59:29;;;;;;;6.90;5.63;;;;;;;8.07;92.26;98768.69;5053024;28;20213;-81
2022/09/28 02:02:00;;;;;;;6.97;5.70;;;;;;;8.08;92.87;98775.69;5049262;28;20206;-82
2022/09/28 02:04:33;;;;;;;6.50;5.70;;;;;;;8.09;92.94;98779.19;5050689;28;20233;-82
2022/09/28 02:07:06;;;;;;;6.20;5.60;;;;;;;8.09;93.51;98764.13;5054450;28;20204;-82
2022/09/28 02:09:37;;;;;;;7.10;5.70;;;;;;;8.09;93.14;98768.59;5044691;28;20198;-82
2022/09/28 02:12:12;;;;;;;7.67;5.53;;;;;;;8.09;92.63;98763.28;5053624;28;20632;-82
2022/09/28 02:14:42;;;;;;;6.13;5.53;;;;;;;8.10;92.98;98764.97;5056738;28;20216;-82
2022/09/28 02:17:09;;;;;;;6.07;5.47;;;;;;;8.08;92.81;98758.94;5060602;28;20591;-82
2022/09/28 02:19:36;;;;;;;6.23;5.33;;;;;;;8.07;93.26;98755.44;5048375;28;20686;-83
2022/09/28 02:22:12;;;;;;;5.87;5.27;;;;;;;8.07;92.96;98754.59;5051795;28;20680;-83
2022/09/28 02:24:42;;;;;;;5.90;5.30;;;;;;;8.09;93.59;98748.22;5048278;28;20253;-81
2022/09/28 02:27:15;;;;;;;7.50;5.63;;;;;;;8.10;93.37;98744.59;5055761;28;20575;-82
2022/09/28 02:29:42;;;;;;;6.40;5.80;;;;;;;8.12;93.76;98736.50;5051436;28;20193;-82
2022/09/28 02:32:08;;;;;;;6.40;4.93;;;;;;;8.13;93.39;98741.69;5051672;28;20224;-82
2022/09/28 02:34:35;;;;;;;7.70;5.70;;;;;;;8.15;93.26;98738.91;5051758;28;20232;-81
2022/09/28 02:37:02;;;;;;;6.57;5.70;;;;;;;8.19;93.94;98740.34;5050228;28;20202;-82
2022/09/28 02:39:29;;;;;;;6.63;5.37;;;;;;;8.19;94.10;98735.03;5054628;28;20205;-82
2022/09/28 02:42:05;;;;;;;7.53;5.77;;;;;;;8.20;94.50;98731.44;5059062;28;20213;-83
2022/09/28 02:44:56;;;;;;;6.60;5.60;;;;;;;8.20;94.00;98732.25;5045919;28;20311;-82
2022/09/28 02:47:33;;;;;;;8.57;5.47;;;;;;;8.21;93.61;98731.31;5053466;28;20220;-81
2022/09/28 02:50:09;;;;;;;9.97;6.03;;;;;;;8.21;94.35;98731.31;5045831;28;20197;-82
2022/09/28 02:52:58;;;;;;;6.20;5.57;;;;;;;8.21;94.61;98728.66;5048244;28;20193;-82
2022/09/28 02:55:36;;;;;;;8.37;6.50;;;;;;;8.22;93.78;98729.50;5051423;28;20594;-81
2022/09/28 02:58:19;;;;;;;9.00;6.67;;;;;;;8.22;94.07;98730.34;5049649;28;20209;-82
2022/09/28 03:00:55;;;;;;;7.77;6.97;;;;;;;8.21;93.59;98730.47;5050737;28;20205;-83
2022/09/28 03:03:32;;;;;;;8.50;6.23;;;;;;;8.20;94.29;98726.13;5056242;28;20601;-82
2022/09/28 03:06:03;;;;;;;7.13;5.93;;;;;;;8.20;93.73;98723.47;5052663;28;20241;-82
2022/09/28 03:08:35;;;;;;;7.60;6.70;;;;;;;8.20;94.10;98721.66;5054944;28;20210;-82
2022/09/28 03:11:07;;;;;;;8.70;6.57;;;;;;;8.22;94.57;98726.84;5055464;28;20216;-82
2022/09/28 03:13:36;;;;;;;8.00;6.73;;;;;;;8.23;94.38;98723.22;5047811;28;20201;-82
2022/09/28 03:16:09;;;;;;;8.77;6.47;;;;;;;8.24;94.58;98720.41;5043300;28;20206;-83
2022/09/28 03:18:36;;;;;;;9.63;6.77;;;;;;;8.25;94.71;98713.28;5047939;28;20208;-82
2022/09/28 03:21:04;;;;;;;9.10;6.77;;;;;;;8.25;94.82;98719.44;5045864;28;20224;-82
2022/09/28 03:23:31;;;;;;;9.83;6.87;;;;;;;8.24;95.13;98709.81;5051825;28;20201;-82
2022/09/28 03:25:57;;;;;;;9.43;6.07;;;;;;;8.25;95.64;98708.84;5049753;28;20232;-82
2022/09/28 03:28:24;;;;;;;8.57;7.07;;;;;;;8.26;94.49;98707.88;5048125;28;20653;-82
2022/09/28 03:30:51;;;;;;;8.53;7.07;;;;;;;8.26;95.17;98707.88;5042726;28;20206;-82
2022/09/28 03:33:19;;;;;;;8.43;7.47;;;;;;;8.27;95.08;98706.06;5044985;28;20212;-82
2022/09/28 03:35:47;;;;;;;9.63;7.17;;;;;;;8.27;95.84;98700.75;5050914;28;20221;-81
2022/09/28 03:38:13;;;;;;;9.47;6.80;;;;;;;8.26;96.09;98697.25;5047285;28;20206;-82
2022/09/28 03:40:40;;;;;;;8.43;7.10;;;;;;;8.26;95.65;98693.75;5050843;28;20228;-82
2022/09/28 03:43:06;;;;;;;9.20;6.37;;;;;;;8.27;96.06;98692.78;5043888;28;20249;-82
2022/09/28 03:45:33;;;;;;;8.97;7.33;;;;;;;8.28;95.80;98689.16;5048581;28;20623;-83
2022/09/28 03:47:59;;;;;;;8.23;6.63;;;;;;;8.29;95.45;98691.69;5044471;28;20214;-82
2022/09/28 03:50:27;;;;;;;8.23;7.10;;;;;;;8.31;95.62;98689.75;5050703;28;21629;-82
2022/09/28 03:52:54;;;;;;;8.80;7.23;;;;;;;8.33;95.50;98693.16;5044076;28;20213;-82
2022/09/28 03:55:20;;;;;;;8.60;7.07;;;;;;;8.35;95.90;98690.38;5046081;28;20226;-82
2022/09/28 03:57:53;;;;;;;12.20;7.23;;;;;;;8.37;96.09;98685.78;5050851;28;20214;-82
2022/09/28 04:00:20;;;;;;;9.77;6.40;;;;;;;8.38;96.39;98683.97;5041576;28;20202;-83
2022/09/28 04:02:46;;;;;;;7.77;6.97;;;;;;;8.38;96.53;98684.81;5047135;28;20214;-83
2022/09/28 04:05:13;;;;;;;10.53;7.03;;;;;;;8.38;96.10;98679.50;5049846;28;20570;-82
2022/09/28 04:07:40;;;;;;;9.03;6.23;;;;;;;8.38;96.19;98676.84;5037433;28;20210;-83
2022/09/28 04:10:08;;;;;;;8.73;6.20;;;;;;;8.37;96.42;98679.63;5049253;28;20221;-82
2022/09/28 04:12:35;;;;;;;9.50;6.40;;;;;;;8.38;95.97;98673.38;5048688;28;20565;-82
2022/09/28 04:15:01;;;;;;;10.10;6.37;;;;;;;8.36;96.91;98668.19;5040848;28;20226;-82
2022/09/28 04:17:27;;;;;;;10.37;5.90;;;;;;;8.36;96.42;98668.19;5045538;28;20232;-82
2022/09/28 04:19:54;;;;;;;7.80;5.97;;;;;;;8.35;96.81;98670.00;5042840;28;20225;-83
2022/09/28 04:22:22;;;;;;;9.03;6.10;;;;;;;8.38;96.56;98673.38;5040774;28;20193;-82
2022/09/28 04:24:49;;;;;;;7.80;5.70;;;;;;;8.38;97.16;98662.75;5047068;28;20740;-82
2022/09/28 04:30:00;;;;;;;7.80;5.57;;;;;;;8.39;97.01;98672.41;5041247;28;20279;-83
2022/09/28 04:32:27;;;;;;;6.87;5.43;;;;;;;8.37;97.68;98659.25;5040703;28;20206;-84
2022/09/28 04:34:53;;;;;;;5.97;5.00;;;;;;;8.34;97.02;98655.06;5030379;28;20225;-82
2022/09/28 04:37:20;;;;;;;6.40;5.00;;;;;;;8.35;97.14;98658.53;5035051;28;20260;-83
2022/09/28 04:39:46;;;;;;;9.07;5.43;;;;;;;8.35;97.37;98663.84;5032724;28;20224;-82
2022/09/28 04:42:14;;;;;;;7.40;5.40;;;;;;;8.34;97.21;98660.34;5036363;28;20201;-82
2022/09/28 04:44:41;;;;;;;7.53;5.63;;;;;;;8.34;97.71;98651.56;5039706;28;20225;-82
2022/09/28 04:47:07;;;;;;;7.90;5.00;;;;;;;8.34;97.02;98657.72;5035885;28;20202;-83
2022/09/28 04:49:35;;;;;;;10.33;5.47;;;;;;;8.35;97.05;98659.38;5040317;28;20217;-83
2022/09/28 04:52:02;;;;;;;8.97;4.70;;;;;;;8.35;97.11;98655.91;5038944;28;20205;-83
2022/09/28 04:54:28;;;;;;;8.53;6.23;;;;;;;8.37;97.22;98653.13;5044945;28;20570;-82
2022/09/28 04:56:55;;;;;;;8.33;5.13;;;;;;;8.38;97.95;98660.09;5044160;28;20717;-83
2022/09/28 04:59:23;;;;;;;6.47;5.07;;;;;;;8.38;97.21;98660.94;5041492;28;20225;-82
2022/09/28 05:01:49;;;;;;;8.97;5.93;;;;;;;8.39;97.57;98659.13;5035635;28;20558;-83
2022/09/28 05:04:16;;;;;;;6.47;5.87;;;;;;;8.37;97.82;98648.66;5039880;28;20218;-82
2022/09/28 05:06:42;;;;;;;8.93;5.70;;;;;;;8.39;97.57;98659.13;5040184;28;20228;-83
2022/09/28 05:09:09;;;;;;;10.60;5.83;;;;;;;8.39;98.21;98657.31;5049977;28;20213;-82
2022/09/28 05:11:35;;;;;;;7.30;5.33;;;;;;;8.39;98.10;98656.47;5052474;28;20676;-84
2022/09/28 05:14:02;;;;;;;7.87;5.40;;;;;;;8.38;98.12;98657.44;5040985;28;20236;-83
2022/09/28 05:16:32;;;;;;;5.67;4.97;;;;;;;8.36;97.61;98654.94;5038141;28;20206;-82
2022/09/28 05:18:59;;;;;;;7.10;4.80;;;;;;;8.35;97.92;98656.72;5037392;28;20344;-83
2022/09/28 05:21:26;;;;;;;8.00;5.63;;;;;;;8.34;97.60;98652.41;5036837;28;20213;-82
2022/09/28 05:23:55;;;;;;;10.80;6.13;;;;;;;8.34;98.41;98654.22;5039459;28;20220;-83
2022/09/28 05:26:21;;;;;;;7.37;5.97;;;;;;;8.35;98.11;98654.09;5042917;28;20233;-82
2022/09/28 05:28:48;;;;;;;9.43;6.63;;;;;;;8.35;98.06;98651.44;5037975;28;20289;-83
2022/09/28 05:31:14;;;;;;;8.67;7.07;;;;;;;8.37;97.94;98653.13;5039173;28;20202;-82
2022/09/28 05:33:42;;;;;;;11.07;7.23;;;;;;;8.36;98.72;98652.28;5047615;28;20202;-83
2022/09/28 05:36:10;;;;;;;9.73;6.63;;;;;;;8.36;99.04;98649.63;5043641;28;20206;-81
2022/09/28 05:38:37;;;;;;;8.43;6.90;;;;;;;8.37;99.46;98650.47;5044654;28;20775;-81
2022/09/28 05:41:04;;;;;;;6.63;5.93;;;;;;;8.38;98.40;98649.50;5048862;28;20213;-81
2022/09/28 05:43:31;;;;;;;7.23;6.27;;;;;;;8.39;98.80;98649.38;5049223;28;20213;-81
2022/09/28 05:45:58;;;;;;;8.80;6.20;;;;;;;8.42;99.29;98653.56;5040826;28;20230;-80
2022/09/28 05:48:26;;;;;;;7.33;5.50;;;;;;;8.43;99.71;98653.41;5047019;28;20213;-82
2022/09/28 05:50:54;;;;;;;7.23;5.17;;;;;;;8.44;99.29;98647.13;5050044;28;20296;-81
2022/09/28 05:53:21;;;;;;;6.47;5.03;;;;;;;8.46;99.61;98647.84;5047365;28;20229;-82
2022/09/28 05:55:48;;;;;;;5.67;4.83;;;;;;;8.48;99.42;98647.72;5048770;28;20225;-85
2022/09/28 05:58:14;;;;;;;9.00;4.73;;;;;;;8.49;99.32;98652.88;5048402;28;20632;-85
2022/09/28 06:00:41;;;;;;;5.20;4.70;;;;;;;8.50;99.79;98648.41;5051544;28;20213;-85
2022/09/28 06:03:10;;;;;;;8.30;5.57;;;;;;;8.51;99.48;98648.28;5048017;28;20679;-86
2022/09/28 06:05:38;;;;;;;7.37;5.40;;;;;;;8.53;99.58;98648.16;5042676;28;20228;-84
2022/09/28 06:08:07;;;;;;;7.87;6.07;;;;;;;8.56;99.32;98643.44;5043440;28;20220;-85
2022/09/28 06:10:34;;;;;;;8.50;5.90;;;;;;;8.58;99.46;98651.25;5047510;28;20578;-84
2022/09/28 06:13:01;;;;;;;9.10;5.73;;;;;;;8.60;100.00;98646.63;5046230;28;20675;-85
2022/09/28 06:15:29;;;;;;;7.17;5.50;;;;;;;8.62;100.00;98650.00;5046071;28;20213;-85
2022/09/28 06:17:57;;;;;;;6.63;5.10;;;;;;;8.63;100.00;98659.66;5043842;28;20206;-85
2022/09/28 06:20:24;;;;;;;7.10;4.90;;;;;;;8.64;99.82;98659.50;5046532;28;20205;-85
2022/09/28 06:22:51;;;;;;;5.53;4.97;;;;;;;8.64;99.45;98653.38;5045669;28;20581;-85
2022/09/28 06:25:20;;;;;;;4.90;4.50;;;;;;;8.64;100.00;98658.66;5048814;28;20217;-86
2022/09/28 06:27:54;;;;;;;7.20;5.10;;;;;;;8.65;99.77;98657.69;5043177;28;20202;-85
2022/09/28 06:30:20;;;;;;;6.43;5.00;;;;;;;8.65;100.00;98655.03;5051506;28;20667;-85
2022/09/28 06:32:47;;;;;;;6.07;5.47;;;;;;;8.65;99.75;98660.34;5040456;28;20206;-85
2022/09/28 06:35:14;;;;;;;5.60;5.03;;;;;;;8.64;100.00;98662.16;5046757;28;20237;-85
2022/09/28 06:37:44;;;;;;;7.10;5.57;;;;;;;8.65;99.54;98670.97;5040887;28;20636;-85
2022/09/28 06:40:10;;;;;;;6.13;5.53;;;;;;;8.66;100.00;98664.69;5047658;28;20198;-85
2022/09/28 06:42:38;;;;;;;7.53;6.17;;;;;;;8.66;99.65;98670.00;5043324;28;20197;-85
2022/09/28 06:45:06;;;;;;;5.97;5.17;;;;;;;8.68;99.65;98673.38;5042457;28;20230;-85
2022/09/28 06:47:33;;;;;;;6.60;4.60;;;;;;;8.67;100.00;98677.81;5043203;28;20217;-84
2022/09/28 06:49:59;;;;;;;7.80;4.70;;;;;;;8.65;99.80;98676.28;5039961;28;20206;-85
2022/09/28 06:52:25;;;;;;;5.43;4.93;;;;;;;8.61;99.52;98680.16;5048366;28;20210;-85
2022/09/28 06:54:52;;;;;;;5.07;4.57;;;;;;;8.61;99.64;98677.50;5040359;28;20705;-85
2022/09/28 06:57:19;;;;;;;5.13;4.63;;;;;;;8.61;99.34;98682.81;5044514;28;20689;-85
2022/09/28 06:59:46;;;;;;;5.60;5.00;;;;;;;8.62;99.12;98674.72;5046150;28;20394;-85
2022/09/28 07:02:13;;;;;;;4.87;4.30;;;;;;;8.62;99.53;98681.84;5046380;28;20209;-85
2022/09/28 07:04:41;;;;;;;4.43;4.03;;;;;;;8.64;99.40;98677.25;5044346;28;20298;-84
2022/09/28 07:07:08;;;;;;;4.53;4.00;;;;;;;8.65;99.60;98684.25;5041272;28;20253;-84
2022/09/28 07:09:35;;;;;;;4.20;3.80;;;;;;;8.66;99.09;98686.75;5043392;28;20573;-85
2022/09/28 07:12:03;;;;;;;4.80;3.50;;;;;;;8.67;99.49;98682.28;5042771;28;20205;-85
2022/09/28 07:14:30;;;;;;;3.47;3.10;;;;;;;8.67;99.26;98693.75;5044793;28;20412;-86
2022/09/28 07:16:57;;;;;;;3.20;2.90;;;;;;;8.69;99.13;98693.63;5042962;28;20201;-85
2022/09/28 07:19:24;;;;;;;2.30;2.10;;;;;;;8.70;98.96;98697.97;5045790;28;20208;-85
2022/09/28 07:21:51;;;;;;;2.13;1.93;;;;;;;8.70;98.84;98700.59;5053074;28;20566;-84
2022/09/28 07:24:18;;;;;;;1.97;1.50;;;;;;;8.66;98.40;98705.34;5044523;28;20492;-85
2022/09/28 07:26:44;;;;;;;2.33;1.87;;;;;;;8.62;98.11;98706.56;5051165;28;20226;-85
2022/09/28 07:29:11;;;;;;;1.80;1.60;;;;;;;8.59;98.39;98701.56;5048755;28;20248;-84
2022/09/28 07:31:38;;;;;;;2.33;1.70;;;;;;;8.58;97.08;98714.94;5040961;28;20217;-85
2022/09/28 07:34:06;;;;;;;2.20;1.93;;;;;;;8.57;96.92;98711.44;5045344;28;20241;-84
2022/09/28 07:36:33;;;;;;;2.00;1.80;;;;;;;8.58;96.89;98713.13;5050676;28;20653;-84
2022/09/28 07:39:00;;;;;;;1.90;1.30;;;;;;;8.58;96.49;98721.09;5055099;28;20236;-86
2022/09/28 07:41:31;;;;;;;1.67;1.20;;;;;;;8.57;95.87;98716.75;5044556;28;20213;-85
2022/09/28 07:44:04;;;;;;;1.07;0.97;;;;;;;8.58;95.67;98726.41;5046612;28;20205;-85
2022/09/28 07:46:31;;;;;;;0.90;0.90;;;;;;;8.58;95.48;98726.41;5040908;28;20255;-85
2022/09/28 07:48:58;;;;;;;2.20;1.10;;;;;;;8.59;96.01;98733.38;5053590;28;20220;-85
2022/09/28 07:51:25;;;;;;;1.90;1.47;;;;;;;8.58;95.58;98734.34;5049694;28;20255;-84
2022/09/28 07:53:53;;;;;;;1.10;1.00;;;;;;;8.56;95.75;98735.47;5049302;28;20210;-84
2022/09/28 07:56:19;;;;;;;2.23;1.40;;;;;;;8.58;95.41;98737.00;5044213;28;20213;-85
2022/09/28 07:58:47;;;;;;;3.57;1.57;;;;;;;8.59;95.37;98743.16;5050089;28;20205;-85
2022/09/28 08:01:15;;;;;;;2.40;2.20;;;;;;;8.60;95.42;98740.34;5047375;28;20209;-85
2022/09/28 08:03:44;;;;;;;3.10;2.77;;;;;;;8.63;95.65;98745.41;5049774;28;20651;-84
2022/09/28 08:06:11;;;;;;;3.90;3.37;;;;;;;8.66;96.04;98750.44;5049586;28;20221;-85
2022/09/28 08:08:43;;;;;;;4.07;3.67;;;;;;;8.67;95.64;98751.28;5049204;28;20288;-86
2022/09/28 08:11:11;;;;;;;4.17;3.50;;;;;;;8.70;95.54;98753.69;5047748;28;20208;-85
2022/09/28 08:13:38;;;;;;;4.87;4.30;;;;;;;8.73;95.81;98755.25;5051728;28;20212;-85
2022/09/28 08:16:07;;;;;;;4.20;3.80;;;;;;;8.76;95.58;98755.81;5041964;28;20707;-85
2022/09/28 08:18:34;;;;;;;4.87;4.37;;;;;;;8.80;96.02;98762.53;5046285;28;20267;-83
2022/09/28 08:23:46;;;;;;;5.57;4.80;;;;;;;8.88;96.36;98762.72;5055236;28;20339;-82
2022/09/28 08:26:13;;;;;;;4.70;4.30;;;;;;;8.89;96.40;98768.88;5049221;28;20225;-82
2022/09/28 08:28:39;;;;;;;5.60;4.17;;;;;;;8.90;96.58;98768.75;5040029;28;20199;-82
2022/09/28 08:31:06;;;;;;;3.83;3.53;;;;;;;8.91;96.51;98775.75;5043182;28;20210;-82
2022/09/28 08:33:33;;;;;;;4.93;4.50;;;;;;;8.93;96.49;98765.00;5047679;28;20812;-82
2022/09/28 08:36:01;;;;;;;5.17;4.37;;;;;;;8.96;96.36;98767.34;5048471;28;20583;-82
2022/09/28 08:38:32;;;;;;;4.30;3.90;;;;;;;9.01;96.72;98770.47;5044329;28;20575;-82
2022/09/28 08:41:09;;;;;;;4.87;3.70;;;;;;;9.07;97.11;98774.41;5044392;28;20221;-82
2022/09/28 08:43:52;;;;;;;3.93;3.20;;;;;;;9.15;96.95;98774.56;5049539;28;20209;-82
2022/09/28 08:46:23;;;;;;;2.77;2.50;;;;;;;9.22;97.18;98787.19;5054317;28;20217;-82
2022/09/28 08:48:54;;;;;;;2.73;2.47;;;;;;;9.27;97.01;98786.78;5053606;28;20209;-83
2022/09/28 08:51:25;;;;;;;2.63;2.43;;;;;;;9.31;96.52;98790.88;5053476;28;20201;-82
2022/09/28 08:53:57;;;;;;;2.90;2.33;;;;;;;9.36;96.32;98792.13;5041029;28;20237;-83
2022/09/28 08:56:31;;;;;;;2.73;2.50;;;;;;;9.44;96.46;98780.00;5059456;28;20197;-82
2022/09/28 08:59:02;;;;;;;2.90;2.37;;;;;;;9.52;96.51;98786.28;5049327;28;20669;-83
2022/09/28 09:01:35;;;;;;;3.43;2.60;;;;;;;9.57;96.21;98793.88;5049130;28;20292;-82
2022/09/28 09:04:05;;;;;;;3.23;2.73;;;;;;;9.55;96.14;98791.34;5043517;28;20230;-83
2022/09/28 09:06:43;;;;;;;2.87;2.60;;;;;;;9.55;95.52;98799.31;5049621;28;20229;-82
2022/09/28 09:09:19;;;;;;;4.10;3.10;;;;;;;9.52;94.82;98796.94;5049159;28;20197;-82
2022/09/28 09:11:59;;;;;;;3.60;3.27;;;;;;;9.52;94.40;98799.59;5047720;28;20200;-82
2022/09/28 09:14:39;;;;;;;3.80;3.40;;;;;;;9.56;94.31;98805.47;5057185;28;20229;-82
2022/09/28 09:17:17;;;;;;;3.80;3.50;;;;;;;9.59;94.32;98813.19;5047454;28;20202;-82
2022/09/28 09:19:52;;;;;;;4.57;4.17;;;;;;;9.63;94.14;98812.78;5053617;28;20228;-83
2022/09/28 09:22:29;;;;;;;4.67;3.93;;;;;;;9.66;94.11;98815.19;5047378;28;20561;-82
2022/09/28 09:25:03;;;;;;;4.50;4.10;;;;;;;9.70;93.66;98810.41;5050561;28;20232;-83
2022/09/28 09:27:49;;;;;;;5.13;4.63;;;;;;;9.74;93.49;98814.47;5052627;28;20216;-81
2022/09/28 09:30:20;;;;;;;5.33;4.70;;;;;;;9.77;93.12;98816.03;5050065;28;20205;-81
2022/09/28 09:33:06;;;;;;;4.20;3.80;;;;;;;9.79;92.71;98814.91;5057036;28;20205;-83
2022/09/28 09:36:02;;;;;;;5.00;4.60;;;;;;;9.78;92.59;98823.88;5053139;28;20225;-83
2022/09/28 09:38:46;;;;;;;4.33;3.77;;;;;;;9.77;91.87;98826.66;5052582;28;20295;-83
2022/09/28 09:41:24;;;;;;;4.33;3.20;;;;;;;9.73;91.35;98821.63;5052145;28;20202;-82
2022/09/28 09:44:07;;;;;;;4.83;3.57;;;;;;;9.72;90.86;98819.94;5053436;28;20232;-83
2022/09/28 09:46:38;;;;;;;3.30;3.00;;;;;;;9.74;90.42;98823.28;5050579;28;20210;-83
2022/09/28 09:49:11;;;;;;;4.27;3.50;;;;;;;9.80;90.54;98827.22;5053176;28;20665;-82
2022/09/28 09:51:44;;;;;;;3.27;2.97;;;;;;;9.89;90.54;98831.72;5052390;28;20212;-82
2022/09/28 09:54:20;;;;;;;3.20;2.83;;;;;;;9.95;90.04;98835.66;5043722;28;20234;-82
2022/09/28 09:56:53;;;;;;;3.30;3.00;;;;;;;10.01;89.55;98843.09;5046137;28;20209;-82
2022/09/28 09:59:25;;;;;;;3.17;2.87;;;;;;;10.06;89.44;98840.84;5054875;28;20260;-82
2022/09/28 10:01:53;;;;;;;2.80;2.60;;;;;;;10.08;88.48;98841.53;5053154;28;20228;-82
2022/09/28 10:04:23;;;;;;;2.70;2.50;;;;;;;10.12;88.43;98837.63;5042234;28;20222;-83
2022/09/28 10:06:55;;;;;;;2.87;2.60;;;;;;;10.18;88.18;98845.06;5048915;28;20224;-83
2022/09/28 10:09:26;;;;;;;3.20;2.53;;;;;;;10.21;87.38;98844.81;5048977;28;20695;-83
2022/09/28 10:11:53;;;;;;;2.57;2.37;;;;;;;10.22;86.24;98849.16;5054502;28;20204;-82
2022/09/28 10:14:23;;;;;;;2.53;2.30;;;;;;;10.23;85.76;98844.66;5051148;28;20292;-82
2022/09/28 10:16:52;;;;;;;3.60;3.30;;;;;;;10.23;84.83;98839.34;5052445;28;20208;-83
2022/09/28 10:19:21;;;;;;;6.57;3.50;;;;;;;10.26;84.67;98845.25;5059311;28;20245;-83
2022/09/28 10:21:50;;;;;;;3.77;3.07;;;;;;;10.30;84.22;98843.16;5053379;28;20228;-83
2022/09/28 10:24:23;;;;;;;2.63;2.43;;;;;;;10.32;83.70;98842.03;5051395;28;20233;-83
2022/09/28 10:26:54;;;;;;;1.93;1.80;;;;;;;10.35;82.64;98851.56;5057117;28;20210;-83
2022/09/28 10:29:25;;;;;;;2.77;2.57;;;;;;;10.37;82.24;98853.09;5051418;28;20204;-83
2022/09/28 10:31:54;;;;;;;2.67;2.47;;;;;;;10.38;81.46;98857.44;5050231;28;20207;-83
2022/09/28 10:34:26;;;;;;;2.43;2.23;;;;;;;10.44;81.42;98859.53;5052831;28;20275;-82
2022/09/28 10:36:57;;;;;;;3.20;3.00;;;;;;;10.51;81.37;98856.31;5047527;28;20215;-82
2022/09/28 10:39:35;;;;;;;3.33;3.13;;;;;;;10.58;80.91;98862.75;5048794;28;20236;-83
2022/09/28 10:42:06;;;;;;;3.23;2.90;;;;;;;10.59;80.26;98861.75;5055953;28;20732;-82
2022/09/28 10:44:38;;;;;;;3.27;3.07;;;;;;;10.60;79.66;98863.44;5057941;28;20237;-83
2022/09/28 10:47:09;;;;;;;3.90;3.30;;;;;;;10.67;79.93;98859.25;5040817;28;20210;-82
2022/09/28 10:49:40;;;;;;;3.50;2.90;;;;;;;10.73;79.72;98864.03;5052754;28;20202;-83
2022/09/28 10:52:30;;;;;;;3.60;3.30;;;;;;;10.82;79.40;98867.66;5049271;28;20683;-83
2022/09/28 10:54:57;;;;;;;3.37;3.07;;;;;;;10.88;79.46;98873.25;5048585;28;20594;-83
2022/09/28 10:57:27;;;;;;;3.03;2.70;;;;;;;10.94;79.05;98877.16;5041439;28;20210;-83
2022/09/28 10:59:55;;;;;;;2.73;2.53;;;;;;;10.99;78.45;98867.75;5047859;28;20221;-82
2022/09/28 11:02:25;;;;;;;2.40;2.30;;;;;;;11.05;77.78;98875.19;5048924;28;20235;-83
2022/09/28 11:04:56;;;;;;;2.10;1.90;;;;;;;11.10;77.26;98875.59;5045574;28;20226;-83
2022/09/28 11:07:25;;;;;;;1.87;1.53;;;;;;;11.14;76.47;98873.47;5049803;28;20706;-83
2022/09/28 11:09:53;;;;;;;1.90;1.80;;;;;;;11.18;76.01;98884.69;5046169;28;20199;-83
2022/09/28 11:12:23;;;;;;;1.90;1.80;;;;;;;11.19;75.60;98870.38;5047899;28;20213;-83
2022/09/28 11:14:55;;;;;;;1.93;1.83;;;;;;;11.22;74.97;98883.41;5041959;28;20233;-84
2022/09/28 11:17:28;;;;;;;1.63;1.53;;;;;;;11.26;74.95;98876.81;5044909;28;20203;-85
2022/09/28 11:19:56;;;;;;;1.90;1.70;;;;;;;11.31;74.50;98885.22;5044672;28;20290;-83
2022/09/28 11:22:27;;;;;;;1.83;1.70;;;;;;;11.36;74.19;98877.63;5042927;28;20205;-83
2022/09/28 11:25:13;;;;;;;2.20;2.00;;;;;;;11.40;73.68;98873.69;5046518;28;20706;-83
2022/09/28 11:27:39;;;;;;;2.40;2.20;;;;;;;11.44;73.25;98886.59;5050099;28;20207;-83
2022/09/28 11:30:22;;;;;;;2.20;2.10;;;;;;;11.49;73.17;98881.63;5039063;28;20214;-83
2022/09/28 11:32:52;;;;;;;2.07;1.70;;;;;;;11.52;72.76;98888.50;5042166;28;20205;-83
2022/09/28 11:35:22;;;;;;;2.03;1.93;;;;;;;11.59;72.58;98884.28;5046108;28;20613;-86
2022/09/28 11:38:03;;;;;;;2.40;2.20;;;;;;;11.71;72.92;98884.94;5045181;28;20198;-84
2022/09/28 11:40:46;;;;;;;1.97;1.87;;;;;;;11.77;72.02;98887.03;5043847;28;20206;-83
2022/09/28 11:43:24;;;;;;;1.77;1.67;;;;;;;11.80;71.19;98882.25;5042984;28;20213;-86
2022/09/28 11:45:59;;;;;;;1.73;1.60;;;;;;;11.86;70.77;98886.16;5043003;28;20225;-85
2022/09/28 11:48:41;;;;;;;1.80;1.70;;;;;;;11.89;70.52;98885.00;5043018;28;20207;-85
2022/09/28 11:51:15;;;;;;;1.80;1.70;;;;;;;11.94;69.69;98885.41;5038862;28;20196;-85
2022/09/28 11:53:47;;;;;;;1.90;1.60;;;;;;;12.00;69.34;98887.50;5045829;28;20203;-85
2022/09/28 11:56:25;;;;;;;1.70;1.60;;;;;;;12.05;68.98;98882.53;5043479;28;20203;-85
2022/09/28 11:58:55;;;;;;;1.80;1.70;;;;;;;12.08;68.71;98880.41;5043785;28;20214;-85
2022/09/28 12:01:28;;;;;;;1.83;1.73;;;;;;;12.11;67.68;98885.47;5043596;28;20225;-85
2022/09/28 12:04:02;;;;;;;1.90;1.80;;;;;;;12.11;67.18;98888.13;5045016;28;20207;-85